sensor_id;sensor_type;location;lat;lon;timestamp;pressure;altitude;pressure_sealevel;temperature;humidity
70254;BME280;57649;42.968;1.608;2022-11-02T00:00:28;98099.09;;;13.77;91.88
70254;BME280;57649;42.968;1.608;2022-11-02T00:02:54;98098.28;;;13.76;91.75
70254;BME280;57649;42.968;1.608;2022-11-02T00:05:20;98102.13;;;13.82;91.59
70254;BME280;57649;42.968;1.608;2022-11-02T00:07:49;98100.09;;;13.84;91.77
70254;BME280;57649;42.968;1.608;2022-11-02T00:10:15;98102.44;;;13.87;91.33
70254;BME280;57649;42.968;1.608;2022-11-02T00:12:40;98101.25;;;13.90;91.16
70254;BME280;57649;42.968;1.608;2022-11-02T00:15:06;98108.81;;;13.94;91.32
70254;BME280;57649;42.968;1.608;2022-11-02T00:17:33;98106.13;;;13.94;90.81
70254;BME280;57649;42.968;1.608;2022-11-02T00:20:00;98103.78;;;13.99;89.74
70254;BME280;57649;42.968;1.608;2022-11-02T00:22:26;98104.09;;;13.96;90.00
70254;BME280;57649;42.968;1.608;2022-11-02T00:24:52;98107.81;;;13.95;90.51
70254;BME280;57649;42.968;1.608;2022-11-02T00:27:17;98108.78;;;14.02;89.85
70254;BME280;57649;42.968;1.608;2022-11-02T00:29:43;98110.47;;;14.03;89.24
70254;BME280;57649;42.968;1.608;2022-11-02T00:32:08;98115.34;;;14.08;89.73
70254;BME280;57649;42.968;1.608;2022-11-02T00:34:34;98110.81;;;14.00;89.72
70254;BME280;57649;42.968;1.608;2022-11-02T00:36:59;98104.59;;;14.00;90.23
70254;BME280;57649;42.968;1.608;2022-11-02T00:39:24;98116.69;;;14.04;89.74
70254;BME280;57649;42.968;1.608;2022-11-02T00:41:50;98104.59;;;14.00;89.98
70254;BME280;57649;42.968;1.608;2022-11-02T00:44:15;98110.47;;;14.03;89.68
70254;BME280;57649;42.968;1.608;2022-11-02T00:46:40;98103.41;;;14.02;89.89
70254;BME280;57649;42.968;1.608;2022-11-02T00:49:06;98102.75;;;14.00;89.87
70254;BME280;57649;42.968;1.608;2022-11-02T00:51:31;98100.72;;;14.02;89.56
70254;BME280;57649;42.968;1.608;2022-11-02T00:53:57;98114.34;;;14.09;89.08
70254;BME280;57649;42.968;1.608;2022-11-02T00:56:22;98108.47;;;14.05;89.31
70254;BME280;57649;42.968;1.608;2022-11-02T00:58:47;98108.84;;;13.86;90.46
70254;BME280;57649;42.968;1.608;2022-11-02T01:01:13;98109.53;;;13.80;91.05
70254;BME280;57649;42.968;1.608;2022-11-02T01:03:38;98113.09;;;13.72;92.19
70254;BME280;57649;42.968;1.608;2022-11-02T01:06:12;98118.59;;;13.79;92.10
70254;BME280;57649;42.968;1.608;2022-11-02T01:08:38;98110.03;;;13.83;91.20
70254;BME280;57649;42.968;1.608;2022-11-02T01:11:13;98117.63;;;13.63;92.57
70254;BME280;57649;42.968;1.608;2022-11-02T01:13:39;98111.22;;;13.64;92.80
70254;BME280;57649;42.968;1.608;2022-11-02T01:16:05;98115.78;;;13.56;93.30
70254;BME280;57649;42.968;1.608;2022-11-02T01:18:31;98111.56;;;13.53;93.25
70254;BME280;57649;42.968;1.608;2022-11-02T01:20:57;98111.91;;;13.66;92.59
70254;BME280;57649;42.968;1.608;2022-11-02T01:23:22;98103.16;;;13.56;92.93
70254;BME280;57649;42.968;1.608;2022-11-02T01:25:48;98106.88;;;13.63;93.07
70254;BME280;57649;42.968;1.608;2022-11-02T01:28:13;98113.75;;;13.66;93.30
70254;BME280;57649;42.968;1.608;2022-11-02T01:30:39;98105.16;;;13.62;93.23
70254;BME280;57649;42.968;1.608;2022-11-02T01:33:05;98109.56;;;13.63;93.35
70254;BME280;57649;42.968;1.608;2022-11-02T01:35:31;98110.22;;;13.65;93.05
70254;BME280;57649;42.968;1.608;2022-11-02T01:37:56;98110.75;;;13.61;93.69
70254;BME280;57649;42.968;1.608;2022-11-02T01:40:21;98113.75;;;13.66;92.80
70254;BME280;57649;42.968;1.608;2022-11-02T01:42:47;98116.09;;;13.69;92.40
70254;BME280;57649;42.968;1.608;2022-11-02T01:45:12;98114.56;;;13.75;92.15
70254;BME280;57649;42.968;1.608;2022-11-02T01:47:41;98099.75;;;13.79;91.66
70254;BME280;57649;42.968;1.608;2022-11-02T01:50:15;98109.19;;;13.83;91.76
70254;BME280;57649;42.968;1.608;2022-11-02T01:52:43;98103.97;;;13.73;92.27
70254;BME280;57649;42.968;1.608;2022-11-02T01:57:34;98104.34;;;13.70;92.51
70254;BME280;57649;42.968;1.608;2022-11-02T02:00:12;98110.38;;;13.72;92.51
70254;BME280;57649;42.968;1.608;2022-11-02T02:02:47;98105.00;;;13.72;92.33
70254;BME280;57649;42.968;1.608;2022-11-02T02:05:15;98107.00;;;13.78;91.94
70254;BME280;57649;42.968;1.608;2022-11-02T02:07:42;98112.06;;;13.73;91.93
70254;BME280;57649;42.968;1.608;2022-11-02T02:10:08;98107.88;;;13.71;91.24
70254;BME280;57649;42.968;1.608;2022-11-02T02:12:34;98102.66;;;13.69;91.58
70254;BME280;57649;42.968;1.608;2022-11-02T02:15:01;98103.84;;;13.66;91.66
70254;BME280;57649;42.968;1.608;2022-11-02T02:22:42;98105.88;;;13.56;92.90
70254;BME280;57649;42.968;1.608;2022-11-02T02:34:36;98105.91;;;13.32;95.07
70254;BME280;57649;42.968;1.608;2022-11-02T02:37:09;98109.56;;;13.39;94.63
70254;BME280;57649;42.968;1.608;2022-11-02T02:39:59;98100.34;;;13.41;94.52
70254;BME280;57649;42.968;1.608;2022-11-02T02:42:39;98099.50;;;13.41;95.08
70254;BME280;57649;42.968;1.608;2022-11-02T02:45:19;98097.47;;;13.43;95.07
70254;BME280;57649;42.968;1.608;2022-11-02T02:48:01;98104.69;;;13.42;94.87
70254;BME280;57649;42.968;1.608;2022-11-02T02:50:33;98094.13;;;13.41;94.98
70254;BME280;57649;42.968;1.608;2022-11-02T02:53:01;98102.16;;;13.49;94.77
70254;BME280;57649;42.968;1.608;2022-11-02T02:55:33;98099.13;;;13.60;90.86
70254;BME280;57649;42.968;1.608;2022-11-02T02:58:01;98096.41;;;13.77;88.87
70254;BME280;57649;42.968;1.608;2022-11-02T03:00:29;98090.34;;;13.83;87.58
70254;BME280;57649;42.968;1.608;2022-11-02T03:02:55;98092.81;;;14.01;86.65
70254;BME280;57649;42.968;1.608;2022-11-02T03:05:35;98088.06;;;14.11;86.04
70254;BME280;57649;42.968;1.608;2022-11-02T03:08:09;98092.47;;;14.12;85.36
70254;BME280;57649;42.968;1.608;2022-11-02T03:11:15;98088.25;;;14.10;86.47
70254;BME280;57649;42.968;1.608;2022-11-02T03:21:57;98089.41;;;14.15;87.59
70254;BME280;57649;42.968;1.608;2022-11-02T03:24:44;98081.19;;;14.09;86.87
70254;BME280;57649;42.968;1.608;2022-11-02T03:32:43;98085.94;;;13.98;87.83
70254;BME280;57649;42.968;1.608;2022-11-02T03:38:33;98090.97;;;14.01;87.89
70254;BME280;57649;42.968;1.608;2022-11-02T03:41:02;98090.97;;;14.01;88.31
70254;BME280;57649;42.968;1.608;2022-11-02T03:43:31;98093.47;;;14.03;88.52
70254;BME280;57649;42.968;1.608;2022-11-02T03:45:59;98102.75;;;14.09;88.13
70254;BME280;57649;42.968;1.608;2022-11-02T03:48:30;98105.94;;;14.04;88.22
70254;BME280;57649;42.968;1.608;2022-11-02T03:50:57;98105.44;;;14.00;88.47
70254;BME280;57649;42.968;1.608;2022-11-02T03:56:05;98107.28;;;14.00;88.14
70254;BME280;57649;42.968;1.608;2022-11-02T03:58:34;98106.09;;;14.02;87.89
70254;BME280;57649;42.968;1.608;2022-11-02T04:01:03;98113.69;;;13.99;87.63
70254;BME280;57649;42.968;1.608;2022-11-02T04:03:29;98108.47;;;14.05;87.79
70254;BME280;57649;42.968;1.608;2022-11-02T04:05:56;98111.47;;;14.02;87.22
70254;BME280;57649;42.968;1.608;2022-11-02T04:08:28;98114.78;;;14.21;87.02
70254;BME280;57649;42.968;1.608;2022-11-02T04:10:57;98108.25;;;14.15;86.83
70254;BME280;57649;42.968;1.608;2022-11-02T04:13:41;98102.25;;;14.05;87.24
70254;BME280;57649;42.968;1.608;2022-11-02T04:16:25;98119.44;;;13.96;87.48
70254;BME280;57649;42.968;1.608;2022-11-02T04:18:50;98110.84;;;13.84;88.75
70254;BME280;57649;42.968;1.608;2022-11-02T04:21:34;98121.28;;;13.87;89.18
70254;BME280;57649;42.968;1.608;2022-11-02T04:24:00;98132.56;;;13.91;88.84
70254;BME280;57649;42.968;1.608;2022-11-02T04:26:43;98126.84;;;13.77;88.83
70254;BME280;57649;42.968;1.608;2022-11-02T04:29:09;98125.88;;;13.70;88.30
70254;BME280;57649;42.968;1.608;2022-11-02T04:31:35;98123.47;;;13.75;88.61
70254;BME280;57649;42.968;1.608;2022-11-02T04:34:00;98137.13;;;13.74;88.09
70254;BME280;57649;42.968;1.608;2022-11-02T04:36:30;98138.13;;;13.73;87.74
70254;BME280;57649;42.968;1.608;2022-11-02T04:38:55;98130.38;;;13.70;87.80
70254;BME280;57649;42.968;1.608;2022-11-02T04:41:22;98134.94;;;13.69;87.60
70254;BME280;57649;42.968;1.608;2022-11-02T04:44:06;98138.28;;;13.71;87.36
70254;BME280;57649;42.968;1.608;2022-11-02T04:46:34;98141.81;;;13.80;87.96
70254;BME280;57649;42.968;1.608;2022-11-02T04:49:00;98141.84;;;13.63;87.87
70254;BME280;57649;42.968;1.608;2022-11-02T04:51:27;98143.88;;;13.61;88.20
70254;BME280;57649;42.968;1.608;2022-11-02T04:53:54;98141.50;;;13.66;87.42
70254;BME280;57649;42.968;1.608;2022-11-02T04:56:21;98143.16;;;13.67;87.79
70254;BME280;57649;42.968;1.608;2022-11-02T04:58:48;98139.84;;;13.57;87.56
70254;BME280;57649;42.968;1.608;2022-11-02T05:01:15;98144.84;;;13.60;88.31
70254;BME280;57649;42.968;1.608;2022-11-02T05:03:40;98146.53;;;13.53;88.23
70254;BME280;57649;42.968;1.608;2022-11-02T05:06:07;98143.69;;;13.55;87.99
70254;BME280;57649;42.968;1.608;2022-11-02T05:08:34;98142.53;;;13.57;87.91
70254;BME280;57649;42.968;1.608;2022-11-02T05:11:00;98137.81;;;13.51;88.20
70254;BME280;57649;42.968;1.608;2022-11-02T05:13:26;98131.25;;;13.45;88.31
70254;BME280;57649;42.968;1.608;2022-11-02T05:15:55;98139.66;;;13.51;88.88
70254;BME280;57649;42.968;1.608;2022-11-02T05:18:21;98141.16;;;13.53;87.84
70254;BME280;57649;42.968;1.608;2022-11-02T05:20:50;98132.44;;;13.51;87.90
70254;BME280;57649;42.968;1.608;2022-11-02T05:23:17;98126.72;;;13.54;87.95
70254;BME280;57649;42.968;1.608;2022-11-02T05:25:54;98137.47;;;13.54;87.64
70254;BME280;57649;42.968;1.608;2022-11-02T05:28:20;98136.13;;;13.66;87.49
70254;BME280;57649;42.968;1.608;2022-11-02T05:30:45;98121.16;;;13.64;87.27
70254;BME280;57649;42.968;1.608;2022-11-02T05:33:11;98127.69;;;13.78;88.06
70254;BME280;57649;42.968;1.608;2022-11-02T05:35:36;98126.16;;;13.75;87.64
70254;BME280;57649;42.968;1.608;2022-11-02T05:38:02;98128.03;;;13.75;88.02
70254;BME280;57649;42.968;1.608;2022-11-02T05:40:27;98129.22;;;13.72;88.12
70254;BME280;57649;42.968;1.608;2022-11-02T05:42:59;98122.31;;;13.70;88.42
70254;BME280;57649;42.968;1.608;2022-11-02T05:45:25;98120.50;;;13.70;88.07
70254;BME280;57649;42.968;1.608;2022-11-02T05:47:51;98123.69;;;13.65;88.46
70254;BME280;57649;42.968;1.608;2022-11-02T05:50:17;98119.50;;;13.63;88.88
70254;BME280;57649;42.968;1.608;2022-11-02T05:52:42;98129.56;;;13.69;88.65
70254;BME280;57649;42.968;1.608;2022-11-02T05:55:08;98130.56;;;13.60;89.01
70254;BME280;57649;42.968;1.608;2022-11-02T05:57:33;98121.50;;;13.61;89.04
70254;BME280;57649;42.968;1.608;2022-11-02T05:59:59;98130.56;;;13.60;89.37
70254;BME280;57649;42.968;1.608;2022-11-02T06:02:25;98126.56;;;13.56;89.76
70254;BME280;57649;42.968;1.608;2022-11-02T06:04:50;98121.50;;;13.53;89.55
70254;BME280;57649;42.968;1.608;2022-11-02T06:07:15;98129.91;;;13.41;90.53
70254;BME280;57649;42.968;1.608;2022-11-02T06:09:41;98123.69;;;13.33;90.93
70254;BME280;57649;42.968;1.608;2022-11-02T06:12:06;98134.59;;;13.31;91.05
70254;BME280;57649;42.968;1.608;2022-11-02T06:14:32;98132.09;;;13.38;90.57
70254;BME280;57649;42.968;1.608;2022-11-02T06:16:57;98135.75;;;13.20;91.04
70254;BME280;57649;42.968;1.608;2022-11-02T06:19:23;98135.41;;;13.23;91.48
70254;BME280;57649;42.968;1.608;2022-11-02T06:21:48;98139.59;;;13.26;90.87
70254;BME280;57649;42.968;1.608;2022-11-02T06:24:13;98141.13;;;13.28;90.84
70254;BME280;57649;42.968;1.608;2022-11-02T06:26:39;98140.84;;;13.32;90.43
70254;BME280;57649;42.968;1.608;2022-11-02T06:29:04;98142.81;;;13.29;90.63
70254;BME280;57649;42.968;1.608;2022-11-02T06:31:30;98135.47;;;13.40;90.67
70254;BME280;57649;42.968;1.608;2022-11-02T06:33:56;98147.56;;;13.44;90.35
70254;BME280;57649;42.968;1.608;2022-11-02T06:36:21;98148.56;;;13.51;89.54
70254;BME280;57649;42.968;1.608;2022-11-02T06:38:46;98141.84;;;13.55;89.64
70254;BME280;57649;42.968;1.608;2022-11-02T06:41:12;98151.94;;;13.61;89.53
70254;BME280;57649;42.968;1.608;2022-11-02T06:43:37;98148.56;;;13.51;89.94
70254;BME280;57649;42.968;1.608;2022-11-02T06:46:03;98147.56;;;13.44;90.28
70254;BME280;57649;42.968;1.608;2022-11-02T06:48:29;98151.75;;;13.38;90.95
70254;BME280;57649;42.968;1.608;2022-11-02T06:50:56;98153.78;;;13.44;90.72
70254;BME280;57649;42.968;1.608;2022-11-02T06:53:21;98156.66;;;13.43;90.41
70254;BME280;57649;42.968;1.608;2022-11-02T06:55:54;98161.34;;;13.57;90.33
70254;BME280;57649;42.968;1.608;2022-11-02T06:58:20;98165.72;;;13.66;90.13
70254;BME280;57649;42.968;1.608;2022-11-02T07:00:47;98170.94;;;13.60;89.90
70254;BME280;57649;42.968;1.608;2022-11-02T07:03:12;98174.78;;;13.65;89.99
70254;BME280;57649;42.968;1.608;2022-11-02T07:05:38;98176.16;;;13.61;90.32
70254;BME280;57649;42.968;1.608;2022-11-02T07:08:04;98177.81;;;13.62;90.24
70254;BME280;57649;42.968;1.608;2022-11-02T07:10:29;98182.19;;;13.63;90.31
70254;BME280;57649;42.968;1.608;2022-11-02T07:12:56;98183.19;;;13.62;90.83
70254;BME280;57649;42.968;1.608;2022-11-02T07:15:23;98178.50;;;13.56;90.55
70254;BME280;57649;42.968;1.608;2022-11-02T07:17:49;98172.78;;;13.67;89.75
70254;BME280;57649;42.968;1.608;2022-11-02T07:20:15;98188.25;;;13.65;89.65
70254;BME280;57649;42.968;1.608;2022-11-02T07:22:40;98181.03;;;13.58;89.91
70254;BME280;57649;42.968;1.608;2022-11-02T07:25:06;98177.66;;;13.56;91.13
70254;BME280;57649;42.968;1.608;2022-11-02T07:27:37;98179.00;;;13.60;90.66
70254;BME280;57649;42.968;1.608;2022-11-02T07:30:03;98188.06;;;13.59;91.28
70254;BME280;57649;42.968;1.608;2022-11-02T07:32:29;98189.94;;;13.66;91.47
70254;BME280;57649;42.968;1.608;2022-11-02T07:34:54;98193.13;;;13.78;90.55
70254;BME280;57649;42.968;1.608;2022-11-02T07:37:20;98191.59;;;13.84;90.68
70254;BME280;57649;42.968;1.608;2022-11-02T07:39:45;98195.31;;;13.75;91.07
70254;BME280;57649;42.968;1.608;2022-11-02T07:42:11;98187.25;;;13.83;90.48
70254;BME280;57649;42.968;1.608;2022-11-02T07:44:36;98198.50;;;13.78;90.09
70254;BME280;57649;42.968;1.608;2022-11-02T07:47:01;98195.13;;;13.76;90.07
70254;BME280;57649;42.968;1.608;2022-11-02T07:49:27;98203.72;;;13.80;90.45
70254;BME280;57649;42.968;1.608;2022-11-02T07:51:54;98195.28;;;13.91;89.94
70254;BME280;57649;42.968;1.608;2022-11-02T07:54:20;98193.94;;;13.95;89.14
70254;BME280;57649;42.968;1.608;2022-11-02T07:56:45;98193.06;;;14.11;88.61
70254;BME280;57649;42.968;1.608;2022-11-02T07:59:11;98194.78;;;14.04;87.87
70254;BME280;57649;42.968;1.608;2022-11-02T08:01:37;98189.72;;;14.09;87.91
70254;BME280;57649;42.968;1.608;2022-11-02T08:04:03;98199.81;;;13.99;88.07
70254;BME280;57649;42.968;1.608;2022-11-02T08:06:28;98211.25;;;14.09;87.85
70254;BME280;57649;42.968;1.608;2022-11-02T08:08:53;98209.09;;;13.96;88.19
70254;BME280;57649;42.968;1.608;2022-11-02T08:11:19;98204.88;;;13.85;88.33
70254;BME280;57649;42.968;1.608;2022-11-02T08:13:44;98206.41;;;13.96;88.22
70254;BME280;57649;42.968;1.608;2022-11-02T08:16:10;98209.06;;;14.13;87.84
70254;BME280;57649;42.968;1.608;2022-11-02T08:18:35;98211.22;;;14.17;87.21
70254;BME280;57649;42.968;1.608;2022-11-02T08:21:01;98202.31;;;14.17;87.17
70254;BME280;57649;42.968;1.608;2022-11-02T08:23:26;98207.50;;;14.35;86.32
70254;BME280;57649;42.968;1.608;2022-11-02T08:25:53;98204.47;;;14.38;85.71
70254;BME280;57649;42.968;1.608;2022-11-02T08:28:25;98209.00;;;14.46;85.04
70254;BME280;57649;42.968;1.608;2022-11-02T08:30:51;98202.56;;;14.47;84.61
70254;BME280;57649;42.968;1.608;2022-11-02T08:33:18;98203.41;;;14.63;84.28
70254;BME280;57649;42.968;1.608;2022-11-02T08:35:44;98203.53;;;14.70;83.91
70254;BME280;57649;42.968;1.608;2022-11-02T08:38:10;98202.84;;;14.76;83.39
70254;BME280;57649;42.968;1.608;2022-11-02T08:40:36;98202.31;;;14.81;82.61
70254;BME280;57649;42.968;1.608;2022-11-02T08:43:06;98194.28;;;14.73;82.46
70254;BME280;57649;42.968;1.608;2022-11-02T08:45:33;98198.47;;;14.75;82.39
70254;BME280;57649;42.968;1.608;2022-11-02T08:48:00;98196.97;;;14.73;82.54
70254;BME280;57649;42.968;1.608;2022-11-02T08:50:26;98196.44;;;14.77;83.55
70254;BME280;57649;42.968;1.608;2022-11-02T08:52:52;98199.66;;;14.73;82.98
70254;BME280;57649;42.968;1.608;2022-11-02T08:55:17;98188.88;;;14.73;83.26
70254;BME280;57649;42.968;1.608;2022-11-02T08:58:03;98194.00;;;14.91;82.62
70254;BME280;57649;42.968;1.608;2022-11-02T09:00:30;98189.25;;;15.01;81.96
70254;BME280;57649;42.968;1.608;2022-11-02T09:03:11;98186.84;;;15.06;80.53
70254;BME280;57649;42.968;1.608;2022-11-02T09:05:44;98174.28;;;15.21;79.63
70254;BME280;57649;42.968;1.608;2022-11-02T09:08:12;98177.28;;;15.27;79.84
70254;BME280;57649;42.968;1.608;2022-11-02T09:10:38;98167.38;;;15.42;79.52
70254;BME280;57649;42.968;1.608;2022-11-02T09:13:05;98165.63;;;15.49;79.06
70254;BME280;57649;42.968;1.608;2022-11-02T09:15:33;98156.19;;;15.53;78.80
70254;BME280;57649;42.968;1.608;2022-11-02T09:17:59;98150.06;;;15.59;77.49
70254;BME280;57649;42.968;1.608;2022-11-02T09:20:25;98154.00;;;15.72;77.54
70254;BME280;57649;42.968;1.608;2022-11-02T09:22:51;98149.84;;;15.84;76.38
70254;BME280;57649;42.968;1.608;2022-11-02T09:25:17;98135.47;;;16.07;74.96
70254;BME280;57649;42.968;1.608;2022-11-02T09:27:43;98132.47;;;16.31;74.27
70254;BME280;57649;42.968;1.608;2022-11-02T09:30:10;98135.91;;;16.40;73.88
70254;BME280;57649;42.968;1.608;2022-11-02T09:32:36;98127.50;;;16.50;73.99
70254;BME280;57649;42.968;1.608;2022-11-02T09:35:05;98124.44;;;16.53;73.68
70254;BME280;57649;42.968;1.608;2022-11-02T09:37:31;98125.97;;;16.77;72.26
70254;BME280;57649;42.968;1.608;2022-11-02T09:39:56;98121.03;;;16.96;71.19
70254;BME280;57649;42.968;1.608;2022-11-02T09:42:37;98116.41;;;17.11;71.64
70254;BME280;57649;42.968;1.608;2022-11-02T09:45:07;98105.06;;;17.22;70.04
70254;BME280;57649;42.968;1.608;2022-11-02T09:47:43;98109.41;;;17.38;70.36
70254;BME280;57649;42.968;1.608;2022-11-02T09:50:20;98101.22;;;17.60;68.95
70254;BME280;57649;42.968;1.608;2022-11-02T09:52:52;98088.84;;;18.00;66.97
70254;BME280;57649;42.968;1.608;2022-11-02T09:55:26;98076.91;;;18.23;66.58
70254;BME280;57649;42.968;1.608;2022-11-02T09:57:58;98077.16;;;18.35;65.42
70254;BME280;57649;42.968;1.608;2022-11-02T10:00:29;98076.13;;;18.42;65.07
70254;BME280;57649;42.968;1.608;2022-11-02T10:03:42;98068.78;;;18.78;63.66
70254;BME280;57649;42.968;1.608;2022-11-02T10:06:13;98066.75;;;18.93;62.40
70254;BME280;57649;42.968;1.608;2022-11-02T10:11:56;98063.00;;;18.94;61.65
70254;BME280;57649;42.968;1.608;2022-11-02T10:14:30;98060.00;;;18.76;62.41
70254;BME280;57649;42.968;1.608;2022-11-02T10:17:10;98058.84;;;19.12;62.18
70254;BME280;57649;42.968;1.608;2022-11-02T10:19:39;98065.50;;;18.89;61.37
70254;BME280;57649;42.968;1.608;2022-11-02T10:22:10;98051.63;;;18.71;62.12
70254;BME280;57649;42.968;1.608;2022-11-02T10:24:44;98045.59;;;18.75;62.48
70254;BME280;57649;42.968;1.608;2022-11-02T10:27:25;98045.38;;;18.77;62.41
70254;BME280;57649;42.968;1.608;2022-11-02T10:30:12;98034.59;;;18.90;62.62
70254;BME280;57649;42.968;1.608;2022-11-02T10:32:39;98034.91;;;18.60;63.73
70254;BME280;57649;42.968;1.608;2022-11-02T10:35:18;98038.25;;;18.62;63.20
70254;BME280;57649;42.968;1.608;2022-11-02T10:41:11;98031.97;;;18.55;63.57
70254;BME280;57649;42.968;1.608;2022-11-02T10:46:28;98026.47;;;18.97;62.20
70254;BME280;57649;42.968;1.608;2022-11-02T10:49:04;98015.19;;;18.93;61.96
70254;BME280;57649;42.968;1.608;2022-11-02T10:51:33;97994.94;;;18.82;61.71
70254;BME280;57649;42.968;1.608;2022-11-02T10:53:58;97997.47;;;18.91;60.84
70254;BME280;57649;42.968;1.608;2022-11-02T10:56:29;97991.00;;;19.38;60.32
70254;BME280;57649;42.968;1.608;2022-11-02T11:01:26;97984.09;;;19.22;60.36
70254;BME280;57649;42.968;1.608;2022-11-02T11:03:55;97979.69;;;19.41;59.53
70254;BME280;57649;42.968;1.608;2022-11-02T11:06:26;97985.16;;;19.28;60.54
70254;BME280;57649;42.968;1.608;2022-11-02T11:08:58;97969.50;;;19.37;59.48
70254;BME280;57649;42.968;1.608;2022-11-02T11:11:27;97960.25;;;19.58;58.97
70254;BME280;57649;42.968;1.608;2022-11-02T11:14:05;97952.50;;;19.61;58.57
70254;BME280;57649;42.968;1.608;2022-11-02T11:21:52;97949.84;;;19.48;57.73
70254;BME280;57649;42.968;1.608;2022-11-02T11:29:39;97946.91;;;19.43;56.59
70254;BME280;57649;42.968;1.608;2022-11-02T11:32:13;97932.69;;;19.61;56.12
70254;BME280;57649;42.968;1.608;2022-11-02T11:34:41;97932.25;;;19.64;56.70
70254;BME280;57649;42.968;1.608;2022-11-02T11:37:09;97921.38;;;19.77;56.37
70254;BME280;57649;42.968;1.608;2022-11-02T11:39:38;97910.13;;;19.67;55.83
70254;BME280;57649;42.968;1.608;2022-11-02T11:42:16;97920.13;;;19.73;56.51
70254;BME280;57649;42.968;1.608;2022-11-02T11:44:51;97910.59;;;19.44;57.12
70254;BME280;57649;42.968;1.608;2022-11-02T11:47:43;97904.41;;;19.89;56.09
70254;BME280;57649;42.968;1.608;2022-11-02T11:50:14;97890.03;;;19.61;57.12
70254;BME280;57649;42.968;1.608;2022-11-02T11:52:40;97894.59;;;19.88;55.97
70254;BME280;57649;42.968;1.608;2022-11-02T11:55:45;97895.88;;;19.78;56.19
70254;BME280;57649;42.968;1.608;2022-11-02T11:58:21;97897.16;;;19.56;56.25
70254;BME280;57649;42.968;1.608;2022-11-02T12:03:27;97876.81;;;19.92;55.87
70254;BME280;57649;42.968;1.608;2022-11-02T12:11:18;97862.66;;;19.70;56.21
70254;BME280;57649;42.968;1.608;2022-11-02T12:14:09;97859.34;;;19.61;56.69
70254;BME280;57649;42.968;1.608;2022-11-02T12:19:43;97836.88;;;19.40;56.13
70254;BME280;57649;42.968;1.608;2022-11-02T12:22:25;97839.03;;;19.25;57.04
70254;BME280;57649;42.968;1.608;2022-11-02T12:25:26;97830.75;;;19.52;56.17
70254;BME280;57649;42.968;1.608;2022-11-02T12:34:02;97825.59;;;19.89;54.59
70254;BME280;57649;42.968;1.608;2022-11-02T12:36:57;97817.25;;;19.90;53.95
70254;BME280;57649;42.968;1.608;2022-11-02T12:47:41;97803.03;;;19.95;53.71
70254;BME280;57649;42.968;1.608;2022-11-02T12:50:41;97791.13;;;19.89;54.31
70254;BME280;57649;42.968;1.608;2022-11-02T12:53:33;97791.56;;;19.86;53.89
70254;BME280;57649;42.968;1.608;2022-11-02T12:56:03;97801.63;;;19.79;53.21
70254;BME280;57649;42.968;1.608;2022-11-02T12:58:33;97797.16;;;19.53;54.28
70254;BME280;57649;42.968;1.608;2022-11-02T13:01:04;97777.25;;;19.59;54.05
70254;BME280;57649;42.968;1.608;2022-11-02T13:03:55;97775.59;;;19.58;53.36
70254;BME280;57649;42.968;1.608;2022-11-02T13:06:30;97772.41;;;19.68;53.96
70254;BME280;57649;42.968;1.608;2022-11-02T13:09:24;97768.38;;;19.84;53.59
70254;BME280;57649;42.968;1.608;2022-11-02T13:11:53;97759.97;;;19.92;53.35
70254;BME280;57649;42.968;1.608;2022-11-02T13:14:23;97761.16;;;20.03;51.10
70254;BME280;57649;42.968;1.608;2022-11-02T13:17:13;97760.00;;;19.85;51.85
70254;BME280;57649;42.968;1.608;2022-11-02T13:19:45;97756.34;;;19.73;52.47
70254;BME280;57649;42.968;1.608;2022-11-02T13:22:13;97754.53;;;19.92;52.75
70254;BME280;57649;42.968;1.608;2022-11-02T13:24:47;97747.34;;;20.04;53.04
70254;BME280;57649;42.968;1.608;2022-11-02T13:27:40;97740.59;;;20.13;52.47
70254;BME280;57649;42.968;1.608;2022-11-02T13:30:15;97747.19;;;19.99;52.03
70254;BME280;57649;42.968;1.608;2022-11-02T13:35:22;97736.19;;;20.12;52.34
70254;BME280;57649;42.968;1.608;2022-11-02T13:37:56;97725.66;;;20.48;51.65
70254;BME280;57649;42.968;1.608;2022-11-02T13:40:26;97728.31;;;20.29;51.24
70254;BME280;57649;42.968;1.608;2022-11-02T13:46:06;97721.53;;;19.88;52.13
70254;BME280;57649;42.968;1.608;2022-11-02T13:48:49;97710.09;;;20.11;52.30
70254;BME280;57649;42.968;1.608;2022-11-02T13:56:39;97707.06;;;20.19;51.32
70254;BME280;57649;42.968;1.608;2022-11-02T13:59:07;97703.69;;;19.99;51.84
70254;BME280;57649;42.968;1.608;2022-11-02T14:01:38;97689.69;;;20.02;51.68
70254;BME280;57649;42.968;1.608;2022-11-02T14:04:07;97697.81;;;20.27;51.12
70254;BME280;57649;42.968;1.608;2022-11-02T14:06:44;97700.81;;;20.19;51.34
70254;BME280;57649;42.968;1.608;2022-11-02T14:09:25;97692.16;;;20.29;51.27
70254;BME280;57649;42.968;1.608;2022-11-02T14:20:36;97684.59;;;20.31;50.50
70254;BME280;57649;42.968;1.608;2022-11-02T14:30:48;97683.16;;;19.78;51.28
70254;BME280;57649;42.968;1.608;2022-11-02T14:36:41;97671.31;;;19.97;52.03
70254;BME280;57649;42.968;1.608;2022-11-02T14:49:38;97675.16;;;20.15;51.60
70254;BME280;57649;42.968;1.608;2022-11-02T14:52:20;97680.97;;;20.18;51.40
70254;BME280;57649;42.968;1.608;2022-11-02T14:55:18;97681.09;;;20.24;51.25
70254;BME280;57649;42.968;1.608;2022-11-02T14:57:58;97682.34;;;20.28;51.11
70254;BME280;57649;42.968;1.608;2022-11-02T15:03:00;97680.72;;;20.20;51.24
70254;BME280;57649;42.968;1.608;2022-11-02T15:05:26;97675.97;;;20.15;50.67
70254;BME280;57649;42.968;1.608;2022-11-02T15:07:58;97666.88;;;20.03;51.32
70254;BME280;57649;42.968;1.608;2022-11-02T15:29:18;97664.44;;;19.31;53.16
70254;BME280;57649;42.968;1.608;2022-11-02T15:31:52;97660.53;;;19.20;53.60
70254;BME280;57649;42.968;1.608;2022-11-02T15:34:21;97664.41;;;18.99;53.91
70254;BME280;57649;42.968;1.608;2022-11-02T15:36:48;97649.66;;;18.82;54.63
70254;BME280;57649;42.968;1.608;2022-11-02T15:39:16;97649.88;;;18.67;55.19
70254;BME280;57649;42.968;1.608;2022-11-02T15:41:54;97657.00;;;18.55;55.25